KOFK/OFK METAR and TAF weather

Enter ICAO airport designator
Station Type Date Time Source
KOFK METAR 2022/06/27 17:56 UTC NOAA

KOFK 271756Z AUTO 17007KT 10SM CLR 27/06 A3032 RMK AO2 SLP258 T02720056 10283 20111 56014


Station Type Date Time Source
KOFK Decoded METAR 2022/06/27 17:56 UTC NOAA

KARL STEFAN MEMORIAL AIRPORT, NE, United States (KOFK) 41-59N 097-26W 470M
Jun 27, 2022 - 01:56 PM EDT / 2022.06.27 1756 UTC
Wind: from the S (170 degrees) at 8 MPH (7 KT):0
Visibility: 10 mile(s):0
Sky conditions: clear
Temperature: 81.0 F (27.2 C)
Dew Point: 42.1 F (5.6 C)
Relative Humidity: 25%
Pressure (altimeter): 30.32 in. Hg (1026 hPa)
Pressure tendency: 0.04 inches (1.4 hPa) lower than three hours ago
ob: KOFK 271756Z AUTO 17007KT 10SM CLR 27/06 A3032 RMK AO2 SLP258 T02720056 10283 20111 56014
cycle: 18

Station Type Date Time Source
KOFK TAF 2022/06/27 18:22 UTC NOAA

TAF KOFK 271720Z 2718/2818 20010G16KT P6SM FEW100
FM272300 18009KT P6SM SCT100
FM281500 23012G20KT P6SM FEW100

Example: see airport list